sensor_id;sensor_type;location;lat;lon;timestamp;P1;durP1;ratioP1;P2;durP2;ratioP2
58528;SDS011;44322;52.968;5.816;2023-02-17T00:01:58;74.80;;;32.45;;
58528;SDS011;44322;52.968;5.816;2023-02-17T00:04:26;69.50;;;31.15;;
58528;SDS011;44322;52.968;5.816;2023-02-17T00:06:52;74.13;;;33.00;;
58528;SDS011;44322;52.968;5.816;2023-02-17T00:09:18;72.05;;;31.60;;
58528;SDS011;44322;52.968;5.816;2023-02-17T00:11:44;73.80;;;32.55;;
58528;SDS011;44322;52.968;5.816;2023-02-17T00:14:10;69.10;;;31.10;;
58528;SDS011;44322;52.968;5.816;2023-02-17T00:16:37;73.60;;;32.15;;
58528;SDS011;44322;52.968;5.816;2023-02-17T00:19:02;70.50;;;31.13;;
58528;SDS011;44322;52.968;5.816;2023-02-17T00:21:55;62.88;;;29.10;;
58528;SDS011;44322;52.968;5.816;2023-02-17T00:24:22;70.20;;;29.70;;
58528;SDS011;44322;52.968;5.816;2023-02-17T00:26:48;70.63;;;29.38;;
58528;SDS011;44322;52.968;5.816;2023-02-17T00:29:14;63.00;;;27.98;;
58528;SDS011;44322;52.968;5.816;2023-02-17T00:31:40;61.10;;;27.15;;
58528;SDS011;44322;52.968;5.816;2023-02-17T00:34:05;55.05;;;26.30;;
58528;SDS011;44322;52.968;5.816;2023-02-17T00:36:31;63.25;;;27.52;;
58528;SDS011;44322;52.968;5.816;2023-02-17T00:38:57;65.50;;;27.20;;
58528;SDS011;44322;52.968;5.816;2023-02-17T00:41:23;54.97;;;24.60;;
58528;SDS011;44322;52.968;5.816;2023-02-17T00:43:52;58.60;;;25.10;;
58528;SDS011;44322;52.968;5.816;2023-02-17T00:46:17;62.22;;;25.85;;
58528;SDS011;44322;52.968;5.816;2023-02-17T00:48:43;57.53;;;25.42;;
58528;SDS011;44322;52.968;5.816;2023-02-17T00:51:10;55.85;;;24.83;;
58528;SDS011;44322;52.968;5.816;2023-02-17T00:53:36;55.58;;;25.13;;
58528;SDS011;44322;52.968;5.816;2023-02-17T00:56:02;63.00;;;25.75;;
58528;SDS011;44322;52.968;5.816;2023-02-17T00:58:28;56.60;;;25.40;;
58528;SDS011;44322;52.968;5.816;2023-02-17T01:00:54;59.45;;;27.10;;
58528;SDS011;44322;52.968;5.816;2023-02-17T01:03:20;56.45;;;25.58;;
58528;SDS011;44322;52.968;5.816;2023-02-17T01:05:47;56.78;;;26.20;;
58528;SDS011;44322;52.968;5.816;2023-02-17T01:08:13;54.85;;;25.67;;
58528;SDS011;44322;52.968;5.816;2023-02-17T01:10:40;54.58;;;26.40;;
58528;SDS011;44322;52.968;5.816;2023-02-17T01:13:07;54.42;;;26.73;;
58528;SDS011;44322;52.968;5.816;2023-02-17T01:15:43;60.35;;;25.27;;
58528;SDS011;44322;52.968;5.816;2023-02-17T01:18:13;49.50;;;24.83;;
58528;SDS011;44322;52.968;5.816;2023-02-17T01:20:39;54.78;;;25.17;;
58528;SDS011;44322;52.968;5.816;2023-02-17T01:23:06;54.30;;;25.00;;
58528;SDS011;44322;52.968;5.816;2023-02-17T01:25:39;55.42;;;25.13;;
58528;SDS011;44322;52.968;5.816;2023-02-17T01:28:06;54.22;;;23.75;;
58528;SDS011;44322;52.968;5.816;2023-02-17T01:30:32;52.90;;;23.45;;
58528;SDS011;44322;52.968;5.816;2023-02-17T01:32:58;54.42;;;23.90;;
58528;SDS011;44322;52.968;5.816;2023-02-17T01:35:23;53.13;;;23.52;;
58528;SDS011;44322;52.968;5.816;2023-02-17T01:37:49;51.22;;;23.90;;
58528;SDS011;44322;52.968;5.816;2023-02-17T01:40:15;56.03;;;24.77;;
58528;SDS011;44322;52.968;5.816;2023-02-17T01:42:41;55.70;;;25.00;;
58528;SDS011;44322;52.968;5.816;2023-02-17T01:47:53;53.30;;;25.13;;
58528;SDS011;44322;52.968;5.816;2023-02-17T01:50:22;58.10;;;25.98;;
58528;SDS011;44322;52.968;5.816;2023-02-17T01:52:49;57.22;;;26.17;;
58528;SDS011;44322;52.968;5.816;2023-02-17T01:55:17;58.77;;;27.73;;
58528;SDS011;44322;52.968;5.816;2023-02-17T01:57:43;57.92;;;26.63;;
58528;SDS011;44322;52.968;5.816;2023-02-17T02:00:11;57.08;;;27.65;;
58528;SDS011;44322;52.968;5.816;2023-02-17T02:02:38;62.00;;;25.57;;
58528;SDS011;44322;52.968;5.816;2023-02-17T02:05:04;59.13;;;27.10;;
58528;SDS011;44322;52.968;5.816;2023-02-17T02:07:34;64.65;;;29.38;;
58528;SDS011;44322;52.968;5.816;2023-02-17T02:10:01;60.58;;;27.05;;
58528;SDS011;44322;52.968;5.816;2023-02-17T02:12:29;61.17;;;29.10;;
58528;SDS011;44322;52.968;5.816;2023-02-17T02:15:01;66.50;;;28.35;;
58528;SDS011;44322;52.968;5.816;2023-02-17T02:33:46;58.72;;;27.95;;
58528;SDS011;44322;52.968;5.816;2023-02-17T02:41:31;61.28;;;28.95;;
58528;SDS011;44322;52.968;5.816;2023-02-17T02:43:58;65.93;;;29.88;;
58528;SDS011;44322;52.968;5.816;2023-02-17T02:46:24;66.03;;;30.52;;
58528;SDS011;44322;52.968;5.816;2023-02-17T02:48:50;64.75;;;30.08;;
58528;SDS011;44322;52.968;5.816;2023-02-17T02:51:21;64.57;;;31.23;;
58528;SDS011;44322;52.968;5.816;2023-02-17T03:02:42;66.30;;;30.83;;
58528;SDS011;44322;52.968;5.816;2023-02-17T03:08:14;58.67;;;29.02;;
58528;SDS011;44322;52.968;5.816;2023-02-17T03:10:46;58.83;;;29.80;;
58528;SDS011;44322;52.968;5.816;2023-02-17T03:13:12;66.45;;;30.42;;
58528;SDS011;44322;52.968;5.816;2023-02-17T03:15:38;68.85;;;30.15;;
58528;SDS011;44322;52.968;5.816;2023-02-17T03:18:04;63.67;;;31.33;;
58528;SDS011;44322;52.968;5.816;2023-02-17T03:20:35;62.38;;;29.92;;
58528;SDS011;44322;52.968;5.816;2023-02-17T03:23:02;69.25;;;30.77;;
58528;SDS011;44322;52.968;5.816;2023-02-17T03:25:28;70.15;;;30.23;;
58528;SDS011;44322;52.968;5.816;2023-02-17T03:27:54;63.38;;;28.40;;
58528;SDS011;44322;52.968;5.816;2023-02-17T03:30:20;64.50;;;29.42;;
58528;SDS011;44322;52.968;5.816;2023-02-17T03:32:46;65.68;;;27.23;;
58528;SDS011;44322;52.968;5.816;2023-02-17T03:35:12;58.35;;;27.42;;
58528;SDS011;44322;52.968;5.816;2023-02-17T03:37:38;64.70;;;27.52;;
58528;SDS011;44322;52.968;5.816;2023-02-17T03:42:32;59.20;;;25.42;;
58528;SDS011;44322;52.968;5.816;2023-02-17T03:44:58;61.90;;;25.20;;
58528;SDS011;44322;52.968;5.816;2023-02-17T03:47:23;56.85;;;24.45;;
58528;SDS011;44322;52.968;5.816;2023-02-17T03:49:49;53.70;;;23.85;;
58528;SDS011;44322;52.968;5.816;2023-02-17T03:52:15;58.47;;;24.55;;
58528;SDS011;44322;52.968;5.816;2023-02-17T03:54:42;60.22;;;24.92;;
58528;SDS011;44322;52.968;5.816;2023-02-17T03:57:07;54.20;;;24.27;;
58528;SDS011;44322;52.968;5.816;2023-02-17T03:59:33;50.83;;;23.92;;
58528;SDS011;44322;52.968;5.816;2023-02-17T04:01:59;54.50;;;23.52;;
58528;SDS011;44322;52.968;5.816;2023-02-17T04:04:24;54.22;;;22.52;;
58528;SDS011;44322;52.968;5.816;2023-02-17T04:06:50;51.90;;;23.27;;
58528;SDS011;44322;52.968;5.816;2023-02-17T04:09:15;55.00;;;23.58;;
58528;SDS011;44322;52.968;5.816;2023-02-17T04:11:41;54.80;;;23.10;;
58528;SDS011;44322;52.968;5.816;2023-02-17T04:14:07;54.22;;;22.75;;
58528;SDS011;44322;52.968;5.816;2023-02-17T04:16:33;52.10;;;21.17;;
58528;SDS011;44322;52.968;5.816;2023-02-17T04:18:58;54.55;;;22.65;;
58528;SDS011;44322;52.968;5.816;2023-02-17T04:21:24;58.50;;;22.65;;
58528;SDS011;44322;52.968;5.816;2023-02-17T04:23:50;53.78;;;22.00;;
58528;SDS011;44322;52.968;5.816;2023-02-17T04:26:15;57.25;;;23.50;;
58528;SDS011;44322;52.968;5.816;2023-02-17T04:28:41;58.67;;;23.65;;
58528;SDS011;44322;52.968;5.816;2023-02-17T04:31:08;54.90;;;23.23;;
58528;SDS011;44322;52.968;5.816;2023-02-17T04:33:33;54.40;;;23.08;;
58528;SDS011;44322;52.968;5.816;2023-02-17T04:35:59;54.17;;;23.35;;
58528;SDS011;44322;52.968;5.816;2023-02-17T04:38:29;53.33;;;23.77;;
58528;SDS011;44322;52.968;5.816;2023-02-17T04:40:56;54.10;;;22.58;;
58528;SDS011;44322;52.968;5.816;2023-02-17T04:43:22;55.35;;;23.13;;
58528;SDS011;44322;52.968;5.816;2023-02-17T04:45:49;52.17;;;22.85;;
58528;SDS011;44322;52.968;5.816;2023-02-17T04:48:14;58.15;;;23.20;;
58528;SDS011;44322;52.968;5.816;2023-02-17T04:50:40;58.70;;;24.27;;
58528;SDS011;44322;52.968;5.816;2023-02-17T04:53:05;60.10;;;25.55;;
58528;SDS011;44322;52.968;5.816;2023-02-17T04:55:32;59.20;;;24.92;;
58528;SDS011;44322;52.968;5.816;2023-02-17T04:57:58;52.60;;;22.15;;
58528;SDS011;44322;52.968;5.816;2023-02-17T05:00:23;59.92;;;23.50;;
58528;SDS011;44322;52.968;5.816;2023-02-17T05:02:49;59.35;;;24.70;;
58528;SDS011;44322;52.968;5.816;2023-02-17T05:05:15;67.35;;;26.67;;
58528;SDS011;44322;52.968;5.816;2023-02-17T05:07:43;63.25;;;25.77;;
58528;SDS011;44322;52.968;5.816;2023-02-17T05:10:10;60.45;;;25.23;;
58528;SDS011;44322;52.968;5.816;2023-02-17T05:12:36;58.60;;;24.15;;
58528;SDS011;44322;52.968;5.816;2023-02-17T05:15:02;61.30;;;25.75;;
58528;SDS011;44322;52.968;5.816;2023-02-17T05:17:28;59.70;;;25.17;;
58528;SDS011;44322;52.968;5.816;2023-02-17T05:19:54;61.88;;;24.92;;
58528;SDS011;44322;52.968;5.816;2023-02-17T05:22:19;60.35;;;26.00;;
58528;SDS011;44322;52.968;5.816;2023-02-17T05:24:45;67.63;;;26.08;;
58528;SDS011;44322;52.968;5.816;2023-02-17T05:27:10;62.17;;;26.00;;
58528;SDS011;44322;52.968;5.816;2023-02-17T05:29:36;59.22;;;25.30;;
58528;SDS011;44322;52.968;5.816;2023-02-17T05:32:01;62.13;;;25.48;;
58528;SDS011;44322;52.968;5.816;2023-02-17T05:34:27;57.40;;;24.15;;
58528;SDS011;44322;52.968;5.816;2023-02-17T05:36:53;63.30;;;26.13;;
58528;SDS011;44322;52.968;5.816;2023-02-17T05:39:18;66.72;;;26.88;;
58528;SDS011;44322;52.968;5.816;2023-02-17T05:41:44;60.55;;;26.33;;
58528;SDS011;44322;52.968;5.816;2023-02-17T05:44:10;58.78;;;26.10;;
58528;SDS011;44322;52.968;5.816;2023-02-17T05:46:35;57.95;;;26.48;;
58528;SDS011;44322;52.968;5.816;2023-02-17T05:49:01;65.68;;;27.63;;
58528;SDS011;44322;52.968;5.816;2023-02-17T05:51:26;71.70;;;30.20;;
58528;SDS011;44322;52.968;5.816;2023-02-17T05:53:52;72.30;;;31.25;;
58528;SDS011;44322;52.968;5.816;2023-02-17T05:56:18;80.43;;;32.50;;
58528;SDS011;44322;52.968;5.816;2023-02-17T05:58:44;73.07;;;32.80;;
58528;SDS011;44322;52.968;5.816;2023-02-17T06:01:10;72.07;;;32.33;;
58528;SDS011;44322;52.968;5.816;2023-02-17T06:03:36;71.80;;;31.63;;
58528;SDS011;44322;52.968;5.816;2023-02-17T06:06:02;75.63;;;31.33;;
58528;SDS011;44322;52.968;5.816;2023-02-17T06:08:28;77.75;;;32.25;;
58528;SDS011;44322;52.968;5.816;2023-02-17T06:10:54;65.68;;;30.52;;
58528;SDS011;44322;52.968;5.816;2023-02-17T06:13:20;70.63;;;31.10;;
58528;SDS011;44322;52.968;5.816;2023-02-17T06:15:46;71.75;;;30.75;;
58528;SDS011;44322;52.968;5.816;2023-02-17T06:18:11;62.38;;;29.90;;
58528;SDS011;44322;52.968;5.816;2023-02-17T06:20:37;67.60;;;29.95;;
58528;SDS011;44322;52.968;5.816;2023-02-17T06:23:03;71.40;;;30.42;;
58528;SDS011;44322;52.968;5.816;2023-02-17T06:25:29;68.60;;;30.08;;
58528;SDS011;44322;52.968;5.816;2023-02-17T06:27:54;71.18;;;31.65;;
58528;SDS011;44322;52.968;5.816;2023-02-17T06:30:20;71.55;;;30.65;;
58528;SDS011;44322;52.968;5.816;2023-02-17T06:32:48;75.53;;;30.08;;
58528;SDS011;44322;52.968;5.816;2023-02-17T06:35:14;69.47;;;29.83;;
58528;SDS011;44322;52.968;5.816;2023-02-17T06:37:40;66.05;;;29.02;;
58528;SDS011;44322;52.968;5.816;2023-02-17T06:40:06;70.13;;;28.73;;
58528;SDS011;44322;52.968;5.816;2023-02-17T06:42:32;66.50;;;29.40;;
58528;SDS011;44322;52.968;5.816;2023-02-17T06:44:57;75.25;;;28.05;;
58528;SDS011;44322;52.968;5.816;2023-02-17T06:47:25;68.57;;;27.23;;
58528;SDS011;44322;52.968;5.816;2023-02-17T06:49:50;76.57;;;28.42;;
58528;SDS011;44322;52.968;5.816;2023-02-17T06:52:16;74.80;;;26.67;;
58528;SDS011;44322;52.968;5.816;2023-02-17T06:54:42;71.03;;;26.88;;
58528;SDS011;44322;52.968;5.816;2023-02-17T06:57:07;67.20;;;27.77;;
58528;SDS011;44322;52.968;5.816;2023-02-17T06:59:33;65.45;;;26.45;;
58528;SDS011;44322;52.968;5.816;2023-02-17T07:01:59;64.65;;;26.08;;
58528;SDS011;44322;52.968;5.816;2023-02-17T07:04:24;62.70;;;25.13;;
58528;SDS011;44322;52.968;5.816;2023-02-17T07:06:50;60.95;;;24.52;;
58528;SDS011;44322;52.968;5.816;2023-02-17T07:09:17;68.90;;;26.77;;
58528;SDS011;44322;52.968;5.816;2023-02-17T07:11:42;64.00;;;25.17;;
58528;SDS011;44322;52.968;5.816;2023-02-17T07:14:09;58.50;;;25.10;;
58528;SDS011;44322;52.968;5.816;2023-02-17T07:16:35;61.58;;;24.45;;
58528;SDS011;44322;52.968;5.816;2023-02-17T07:19:00;65.82;;;24.65;;
58528;SDS011;44322;52.968;5.816;2023-02-17T07:21:26;59.38;;;23.60;;
58528;SDS011;44322;52.968;5.816;2023-02-17T07:23:52;65.47;;;24.92;;
58528;SDS011;44322;52.968;5.816;2023-02-17T07:26:17;58.03;;;24.23;;
58528;SDS011;44322;52.968;5.816;2023-02-17T07:28:43;59.92;;;24.17;;
58528;SDS011;44322;52.968;5.816;2023-02-17T07:31:10;54.95;;;23.10;;
58528;SDS011;44322;52.968;5.816;2023-02-17T07:33:38;60.50;;;23.80;;
58528;SDS011;44322;52.968;5.816;2023-02-17T07:36:08;53.40;;;24.70;;
58528;SDS011;44322;52.968;5.816;2023-02-17T07:38:35;54.47;;;23.63;;
58528;SDS011;44322;52.968;5.816;2023-02-17T07:41:05;61.92;;;25.23;;
58528;SDS011;44322;52.968;5.816;2023-02-17T07:43:32;54.85;;;24.20;;
58528;SDS011;44322;52.968;5.816;2023-02-17T07:45:58;55.35;;;24.35;;
58528;SDS011;44322;52.968;5.816;2023-02-17T07:48:24;59.55;;;25.10;;
58528;SDS011;44322;52.968;5.816;2023-02-17T07:50:50;57.00;;;24.90;;
58528;SDS011;44322;52.968;5.816;2023-02-17T07:53:15;55.55;;;24.88;;
58528;SDS011;44322;52.968;5.816;2023-02-17T07:55:41;49.90;;;22.98;;
58528;SDS011;44322;52.968;5.816;2023-02-17T07:58:07;52.50;;;23.35;;
58528;SDS011;44322;52.968;5.816;2023-02-17T08:00:32;53.63;;;23.83;;
58528;SDS011;44322;52.968;5.816;2023-02-17T08:02:58;43.08;;;21.98;;
58528;SDS011;44322;52.968;5.816;2023-02-17T08:05:24;53.00;;;22.50;;
58528;SDS011;44322;52.968;5.816;2023-02-17T08:07:50;55.15;;;23.80;;
58528;SDS011;44322;52.968;5.816;2023-02-17T08:10:36;48.17;;;22.83;;
58528;SDS011;44322;52.968;5.816;2023-02-17T08:13:21;43.95;;;21.52;;
58528;SDS011;44322;52.968;5.816;2023-02-17T08:15:46;44.33;;;20.92;;
58528;SDS011;44322;52.968;5.816;2023-02-17T08:18:12;38.58;;;19.55;;
58528;SDS011;44322;52.968;5.816;2023-02-17T08:20:37;40.22;;;18.40;;
58528;SDS011;44322;52.968;5.816;2023-02-17T08:23:03;40.95;;;17.10;;
58528;SDS011;44322;52.968;5.816;2023-02-17T08:25:32;35.10;;;16.13;;
58528;SDS011;44322;52.968;5.816;2023-02-17T08:27:59;30.63;;;15.63;;
58528;SDS011;44322;52.968;5.816;2023-02-17T08:30:25;34.55;;;15.77;;
58528;SDS011;44322;52.968;5.816;2023-02-17T08:32:51;36.90;;;15.68;;
58528;SDS011;44322;52.968;5.816;2023-02-17T08:35:17;30.70;;;13.90;;
58528;SDS011;44322;52.968;5.816;2023-02-17T08:37:47;37.22;;;14.93;;
58528;SDS011;44322;52.968;5.816;2023-02-17T08:40:14;31.60;;;14.07;;
58528;SDS011;44322;52.968;5.816;2023-02-17T08:42:40;32.33;;;13.60;;
58528;SDS011;44322;52.968;5.816;2023-02-17T08:45:06;33.25;;;13.82;;
58528;SDS011;44322;52.968;5.816;2023-02-17T08:47:32;31.98;;;13.38;;
58528;SDS011;44322;52.968;5.816;2023-02-17T08:49:59;31.33;;;13.43;;
58528;SDS011;44322;52.968;5.816;2023-02-17T08:52:24;23.13;;;11.68;;
58528;SDS011;44322;52.968;5.816;2023-02-17T08:54:50;33.53;;;13.00;;
58528;SDS011;44322;52.968;5.816;2023-02-17T08:57:17;27.65;;;12.13;;
58528;SDS011;44322;52.968;5.816;2023-02-17T08:59:43;29.70;;;11.98;;
58528;SDS011;44322;52.968;5.816;2023-02-17T09:02:12;32.72;;;11.75;;
58528;SDS011;44322;52.968;5.816;2023-02-17T09:04:38;23.70;;;11.63;;
58528;SDS011;44322;52.968;5.816;2023-02-17T09:07:04;28.13;;;10.63;;
58528;SDS011;44322;52.968;5.816;2023-02-17T09:09:34;29.13;;;12.40;;
58528;SDS011;44322;52.968;5.816;2023-02-17T09:12:00;22.13;;;10.75;;
58528;SDS011;44322;52.968;5.816;2023-02-17T09:14:26;23.38;;;10.85;;
58528;SDS011;44322;52.968;5.816;2023-02-17T09:16:52;24.25;;;9.98;;
58528;SDS011;44322;52.968;5.816;2023-02-17T09:19:20;25.08;;;10.43;;
58528;SDS011;44322;52.968;5.816;2023-02-17T09:21:46;17.77;;;9.23;;
58528;SDS011;44322;52.968;5.816;2023-02-17T09:24:13;25.83;;;10.00;;
58528;SDS011;44322;52.968;5.816;2023-02-17T09:26:39;22.38;;;9.93;;
58528;SDS011;44322;52.968;5.816;2023-02-17T09:29:05;24.75;;;10.23;;
58528;SDS011;44322;52.968;5.816;2023-02-17T09:31:32;21.83;;;9.55;;
58528;SDS011;44322;52.968;5.816;2023-02-17T09:33:58;23.98;;;9.48;;
58528;SDS011;44322;52.968;5.816;2023-02-17T09:36:25;25.95;;;10.05;;
58528;SDS011;44322;52.968;5.816;2023-02-17T09:38:53;22.58;;;9.65;;
58528;SDS011;44322;52.968;5.816;2023-02-17T09:43:57;21.73;;;9.27;;
58528;SDS011;44322;52.968;5.816;2023-02-17T09:46:34;24.38;;;9.32;;
58528;SDS011;44322;52.968;5.816;2023-02-17T09:49:07;23.25;;;9.20;;
58528;SDS011;44322;52.968;5.816;2023-02-17T09:51:41;23.27;;;9.43;;
58528;SDS011;44322;52.968;5.816;2023-02-17T09:54:13;22.30;;;9.05;;
58528;SDS011;44322;52.968;5.816;2023-02-17T09:56:41;21.30;;;9.10;;
58528;SDS011;44322;52.968;5.816;2023-02-17T09:59:14;22.92;;;8.68;;
58528;SDS011;44322;52.968;5.816;2023-02-17T10:01:42;17.60;;;8.30;;
58528;SDS011;44322;52.968;5.816;2023-02-17T10:04:11;19.20;;;8.18;;
58528;SDS011;44322;52.968;5.816;2023-02-17T10:06:42;20.30;;;8.45;;
58528;SDS011;44322;52.968;5.816;2023-02-17T10:09:17;20.42;;;8.18;;
58528;SDS011;44322;52.968;5.816;2023-02-17T10:14:55;15.50;;;8.20;;
58528;SDS011;44322;52.968;5.816;2023-02-17T10:22:54;20.73;;;8.20;;
58528;SDS011;44322;52.968;5.816;2023-02-17T10:25:36;14.55;;;6.57;;
58528;SDS011;44322;52.968;5.816;2023-02-17T10:31:10;11.63;;;5.78;;
58528;SDS011;44322;52.968;5.816;2023-02-17T10:33:42;15.27;;;5.50;;
58528;SDS011;44322;52.968;5.816;2023-02-17T10:41:34;11.85;;;4.85;;
58528;SDS011;44322;52.968;5.816;2023-02-17T10:44:04;12.98;;;4.90;;
58528;SDS011;44322;52.968;5.816;2023-02-17T10:46:32;14.73;;;5.07;;
58528;SDS011;44322;52.968;5.816;2023-02-17T10:48:59;15.07;;;5.25;;
58528;SDS011;44322;52.968;5.816;2023-02-17T10:51:25;14.52;;;5.60;;
58528;SDS011;44322;52.968;5.816;2023-02-17T10:54:12;14.98;;;4.95;;
58528;SDS011;44322;52.968;5.816;2023-02-17T10:56:45;19.75;;;4.95;;
58528;SDS011;44322;52.968;5.816;2023-02-17T11:01:43;14.27;;;5.00;;
58528;SDS011;44322;52.968;5.816;2023-02-17T11:04:10;12.02;;;4.85;;
58528;SDS011;44322;52.968;5.816;2023-02-17T11:06:47;17.65;;;5.07;;
58528;SDS011;44322;52.968;5.816;2023-02-17T11:12:01;14.65;;;4.28;;
58528;SDS011;44322;52.968;5.816;2023-02-17T11:14:42;13.05;;;4.53;;
58528;SDS011;44322;52.968;5.816;2023-02-17T11:17:28;13.68;;;4.55;;
58528;SDS011;44322;52.968;5.816;2023-02-17T11:19:56;16.08;;;4.57;;
58528;SDS011;44322;52.968;5.816;2023-02-17T11:22:36;14.35;;;4.00;;
58528;SDS011;44322;52.968;5.816;2023-02-17T11:27:50;12.70;;;3.83;;
58528;SDS011;44322;52.968;5.816;2023-02-17T11:30:23;14.52;;;3.75;;
58528;SDS011;44322;52.968;5.816;2023-02-17T11:32:50;15.13;;;3.50;;
58528;SDS011;44322;52.968;5.816;2023-02-17T11:35:26;11.20;;;3.40;;
58528;SDS011;44322;52.968;5.816;2023-02-17T11:38:14;10.70;;;3.15;;
58528;SDS011;44322;52.968;5.816;2023-02-17T11:40:52;12.95;;;3.67;;
58528;SDS011;44322;52.968;5.816;2023-02-17T11:43:21;11.73;;;3.25;;
58528;SDS011;44322;52.968;5.816;2023-02-17T11:45:54;13.27;;;3.60;;
58528;SDS011;44322;52.968;5.816;2023-02-17T12:20:04;16.40;;;3.88;;
58528;SDS011;44322;52.968;5.816;2023-02-17T12:23:04;11.45;;;3.30;;
58528;SDS011;44322;52.968;5.816;2023-02-17T12:25:44;10.52;;;3.95;;
58528;SDS011;44322;52.968;5.816;2023-02-17T12:28:43;10.10;;;2.63;;
58528;SDS011;44322;52.968;5.816;2023-02-17T12:34:04;8.13;;;2.83;;
58528;SDS011;44322;52.968;5.816;2023-02-17T12:36:50;10.02;;;3.03;;
58528;SDS011;44322;52.968;5.816;2023-02-17T12:39:20;10.70;;;3.15;;
58528;SDS011;44322;52.968;5.816;2023-02-17T12:41:50;9.68;;;2.50;;
58528;SDS011;44322;52.968;5.816;2023-02-17T12:44:20;6.85;;;2.50;;
58528;SDS011;44322;52.968;5.816;2023-02-17T12:46:49;11.52;;;3.58;;
58528;SDS011;44322;52.968;5.816;2023-02-17T12:51:52;8.20;;;2.67;;
58528;SDS011;44322;52.968;5.816;2023-02-17T12:54:38;6.13;;;2.22;;
58528;SDS011;44322;52.968;5.816;2023-02-17T12:59:38;7.07;;;2.53;;
58528;SDS011;44322;52.968;5.816;2023-02-17T13:02:14;10.15;;;2.70;;
58528;SDS011;44322;52.968;5.816;2023-02-17T13:04:46;9.65;;;2.50;;
58528;SDS011;44322;52.968;5.816;2023-02-17T13:09:52;10.88;;;2.35;;
58528;SDS011;44322;52.968;5.816;2023-02-17T13:14:55;9.20;;;2.40;;
58528;SDS011;44322;52.968;5.816;2023-02-17T13:17:24;11.25;;;3.10;;
58528;SDS011;44322;52.968;5.816;2023-02-17T13:22:35;10.40;;;3.10;;
58528;SDS011;44322;52.968;5.816;2023-02-17T13:25:05;10.88;;;3.42;;
58528;SDS011;44322;52.968;5.816;2023-02-17T13:27:35;6.57;;;2.72;;
58528;SDS011;44322;52.968;5.816;2023-02-17T13:32:47;10.38;;;2.95;;
58528;SDS011;44322;52.968;5.816;2023-02-17T13:37:50;10.30;;;3.00;;
58528;SDS011;44322;52.968;5.816;2023-02-17T13:42:47;7.45;;;2.60;;
58528;SDS011;44322;52.968;5.816;2023-02-17T13:50:43;8.63;;;2.28;;
58528;SDS011;44322;52.968;5.816;2023-02-17T13:53:22;10.32;;;2.58;;
58528;SDS011;44322;52.968;5.816;2023-02-17T13:56:03;8.48;;;2.78;;
58528;SDS011;44322;52.968;5.816;2023-02-17T13:58:30;10.25;;;2.72;;
58528;SDS011;44322;52.968;5.816;2023-02-17T14:00:59;11.30;;;2.88;;
58528;SDS011;44322;52.968;5.816;2023-02-17T14:03:27;10.93;;;3.07;;
58528;SDS011;44322;52.968;5.816;2023-02-17T14:08:24;9.00;;;2.80;;
58528;SDS011;44322;52.968;5.816;2023-02-17T14:11:11;10.07;;;2.65;;
58528;SDS011;44322;52.968;5.816;2023-02-17T14:13:48;10.45;;;3.00;;
58528;SDS011;44322;52.968;5.816;2023-02-17T14:16:25;7.80;;;2.75;;
58528;SDS011;44322;52.968;5.816;2023-02-17T14:19:15;13.00;;;3.15;;
58528;SDS011;44322;52.968;5.816;2023-02-17T14:21:44;12.27;;;3.10;;
58528;SDS011;44322;52.968;5.816;2023-02-17T14:27:05;14.50;;;3.03;;
58528;SDS011;44322;52.968;5.816;2023-02-17T14:32:27;9.60;;;2.70;;
58528;SDS011;44322;52.968;5.816;2023-02-17T14:35:14;14.10;;;3.38;;
58528;SDS011;44322;52.968;5.816;2023-02-17T14:37:45;8.85;;;2.92;;
58528;SDS011;44322;52.968;5.816;2023-02-17T14:40:15;13.15;;;3.40;;
58528;SDS011;44322;52.968;5.816;2023-02-17T14:42:43;9.40;;;2.50;;
58528;SDS011;44322;52.968;5.816;2023-02-17T14:45:09;13.63;;;3.20;;
58528;SDS011;44322;52.968;5.816;2023-02-17T14:47:35;11.88;;;3.40;;
58528;SDS011;44322;52.968;5.816;2023-02-17T14:50:01;12.95;;;3.20;;
58528;SDS011;44322;52.968;5.816;2023-02-17T14:52:26;11.35;;;3.03;;
58528;SDS011;44322;52.968;5.816;2023-02-17T14:54:52;14.38;;;3.67;;
58528;SDS011;44322;52.968;5.816;2023-02-17T14:57:18;12.77;;;3.88;;
58528;SDS011;44322;52.968;5.816;2023-02-17T14:59:48;12.30;;;3.85;;
58528;SDS011;44322;52.968;5.816;2023-02-17T15:02:14;11.55;;;4.57;;
58528;SDS011;44322;52.968;5.816;2023-02-17T15:04:44;12.80;;;4.05;;
58528;SDS011;44322;52.968;5.816;2023-02-17T15:07:14;15.38;;;3.33;;
58528;SDS011;44322;52.968;5.816;2023-02-17T15:09:44;14.57;;;3.72;;
58528;SDS011;44322;52.968;5.816;2023-02-17T15:12:13;15.63;;;3.38;;
58528;SDS011;44322;52.968;5.816;2023-02-17T15:14:40;14.88;;;4.20;;
58528;SDS011;44322;52.968;5.816;2023-02-17T15:17:05;12.55;;;3.45;;
58528;SDS011;44322;52.968;5.816;2023-02-17T15:19:31;12.68;;;3.55;;
58528;SDS011;44322;52.968;5.816;2023-02-17T15:21:57;13.90;;;2.95;;
58528;SDS011;44322;52.968;5.816;2023-02-17T15:24:25;15.55;;;3.25;;
58528;SDS011;44322;52.968;5.816;2023-02-17T15:26:53;15.45;;;3.47;;
58528;SDS011;44322;52.968;5.816;2023-02-17T15:29:22;16.83;;;3.60;;
58528;SDS011;44322;52.968;5.816;2023-02-17T15:31:49;12.25;;;3.25;;
58528;SDS011;44322;52.968;5.816;2023-02-17T15:34:20;16.80;;;3.78;;
58528;SDS011;44322;52.968;5.816;2023-02-17T15:36:47;21.50;;;3.85;;
58528;SDS011;44322;52.968;5.816;2023-02-17T15:39:14;14.63;;;3.70;;
58528;SDS011;44322;52.968;5.816;2023-02-17T15:41:41;13.50;;;3.38;;
58528;SDS011;44322;52.968;5.816;2023-02-17T15:44:13;14.10;;;3.58;;
58528;SDS011;44322;52.968;5.816;2023-02-17T15:46:41;17.25;;;3.60;;
58528;SDS011;44322;52.968;5.816;2023-02-17T15:49:09;17.55;;;3.53;;
58528;SDS011;44322;52.968;5.816;2023-02-17T15:51:35;19.25;;;3.78;;
58528;SDS011;44322;52.968;5.816;2023-02-17T15:54:01;17.73;;;3.97;;
58528;SDS011;44322;52.968;5.816;2023-02-17T15:56:29;20.90;;;3.88;;
58528;SDS011;44322;52.968;5.816;2023-02-17T15:58:57;15.73;;;3.35;;
58528;SDS011;44322;52.968;5.816;2023-02-17T16:01:26;15.48;;;3.20;;
58528;SDS011;44322;52.968;5.816;2023-02-17T16:03:56;14.95;;;3.25;;
58528;SDS011;44322;52.968;5.816;2023-02-17T16:06:22;15.43;;;3.30;;
58528;SDS011;44322;52.968;5.816;2023-02-17T16:08:48;14.20;;;3.40;;
58528;SDS011;44322;52.968;5.816;2023-02-17T16:11:14;14.23;;;2.92;;
58528;SDS011;44322;52.968;5.816;2023-02-17T16:13:41;15.73;;;3.08;;
58528;SDS011;44322;52.968;5.816;2023-02-17T16:16:11;14.63;;;2.73;;
58528;SDS011;44322;52.968;5.816;2023-02-17T16:18:38;15.50;;;3.20;;
58528;SDS011;44322;52.968;5.816;2023-02-17T16:21:04;10.40;;;3.17;;
58528;SDS011;44322;52.968;5.816;2023-02-17T16:23:30;15.45;;;3.40;;
58528;SDS011;44322;52.968;5.816;2023-02-17T16:25:55;13.60;;;3.45;;
58528;SDS011;44322;52.968;5.816;2023-02-17T16:28:21;15.90;;;3.33;;
58528;SDS011;44322;52.968;5.816;2023-02-17T16:30:49;16.92;;;3.58;;
58528;SDS011;44322;52.968;5.816;2023-02-17T16:33:17;14.57;;;3.08;;
58528;SDS011;44322;52.968;5.816;2023-02-17T16:35:42;19.17;;;5.25;;
58528;SDS011;44322;52.968;5.816;2023-02-17T16:38:13;11.15;;;2.97;;
58528;SDS011;44322;52.968;5.816;2023-02-17T16:40:46;13.38;;;3.22;;
58528;SDS011;44322;52.968;5.816;2023-02-17T16:43:17;13.18;;;2.97;;
58528;SDS011;44322;52.968;5.816;2023-02-17T16:45:54;19.92;;;4.13;;
58528;SDS011;44322;52.968;5.816;2023-02-17T16:48:28;11.52;;;3.05;;
58528;SDS011;44322;52.968;5.816;2023-02-17T16:50:55;15.35;;;3.03;;